Time;durP1;ratioP1;P1;durP2;ratioP2;P2;SDS_P1;SDS_P2;PMS_P1;PMS_P2;Temp;Humidity;BMP_temperature;BMP_pressure;BME280_temperature;BME280_humidity;BME280_pressure;Samples;Min_cycle;Max_cycle;Signal;HPM_P1;HPM_P2
2022/10/03 00:01:31;;;;;;;14.57;2.20;;;9.70;99.90;;;;;;5046687;28;20229;-84
2022/10/03 00:04:12;;;;;;;9.97;2.40;;;9.70;99.90;;;;;;5044583;28;20233;-83
2022/10/03 00:06:51;;;;;;;15.00;2.93;;;9.80;99.90;;;;;;5047313;28;20252;-84
2022/10/03 00:09:30;;;;;;;14.70;2.57;;;9.80;99.90;;;;;;5042364;28;20221;-84
2022/10/03 00:12:08;;;;;;;13.93;2.63;;;9.80;99.90;;;;;;5045835;28;20238;-83
2022/10/03 00:14:44;;;;;;;11.07;2.93;;;9.90;99.90;;;;;;5045435;28;20247;-82
2022/10/03 00:17:17;;;;;;;16.80;3.40;;;9.90;99.90;;;;;;5044396;28;20244;-84
2022/10/03 00:19:54;;;;;;;13.27;3.27;;;9.90;99.90;;;;;;5042880;28;20225;-84
2022/10/03 00:22:32;;;;;;;13.53;2.83;;;9.90;99.90;;;;;;5045162;28;20226;-82
2022/10/03 00:25:21;;;;;;;13.17;2.53;;;9.90;99.90;;;;;;5046734;28;20229;-82
2022/10/03 00:27:55;;;;;;;10.57;2.53;;;9.90;99.90;;;;;;5040176;28;20253;-82
2022/10/03 00:30:24;;;;;;;12.37;2.60;;;9.90;99.90;;;;;;5046403;28;20713;-83
2022/10/03 00:33:14;;;;;;;8.83;2.23;;;9.90;99.90;;;;;;5063391;28;20231;-82
2022/10/03 00:35:59;;;;;;;11.90;3.00;;;9.90;99.90;;;;;;5026637;28;20228;-82
2022/10/03 00:38:55;;;;;;;12.90;3.00;;;9.90;99.90;;;;;;5032655;28;20282;-82
2022/10/03 00:41:32;;;;;;;13.23;2.93;;;10.00;99.90;;;;;;5046103;28;20225;-83
2022/10/03 00:44:34;;;;;;;16.97;2.87;;;10.00;99.90;;;;;;5047804;28;20243;-83
2022/10/03 00:47:27;;;;;;;12.63;2.20;;;10.00;99.90;;;;;;5046816;28;20235;-83
2022/10/03 00:50:08;;;;;;;15.17;2.23;;;10.00;99.90;;;;;;5046076;28;20241;-82
2022/10/03 00:53:00;;;;;;;15.07;2.47;;;10.10;99.90;;;;;;5040454;28;20235;-82
2022/10/03 00:55:40;;;;;;;15.47;2.50;;;10.10;99.90;;;;;;5029684;28;20230;-83
2022/10/03 00:58:30;;;;;;;13.33;2.50;;;10.10;99.90;;;;;;5025905;28;20708;-82
2022/10/03 01:01:20;;;;;;;8.27;2.00;;;10.20;99.90;;;;;;5030573;28;20260;-82
2022/10/03 01:04:04;;;;;;;13.17;3.17;;;10.20;99.90;;;;;;5040669;28;20226;-81
2022/10/03 01:06:39;;;;;;;12.47;2.80;;;10.20;99.90;;;;;;5045287;28;20722;-80
2022/10/03 01:09:26;;;;;;;11.73;2.67;;;10.20;99.90;;;;;;5036635;28;20981;-81
2022/10/03 01:12:05;;;;;;;14.03;2.80;;;10.20;99.90;;;;;;5047513;28;20315;-81
2022/10/03 01:15:17;;;;;;;12.33;2.73;;;10.20;99.90;;;;;;5047833;28;20373;-80
2022/10/03 01:17:55;;;;;;;14.67;2.43;;;10.20;99.90;;;;;;5005767;28;20228;-80
2022/10/03 01:20:30;;;;;;;15.37;2.80;;;10.20;99.90;;;;;;5045739;28;20300;-81
2022/10/03 01:23:47;;;;;;;12.23;2.50;;;10.20;99.90;;;;;;5047397;28;20223;-82
2022/10/03 01:26:42;;;;;;;8.43;2.10;;;10.10;99.90;;;;;;4980014;28;20275;-81
2022/10/03 01:32:03;;;;;;;10.80;2.53;;;10.10;99.90;;;;;;5026647;28;20225;-81
2022/10/03 01:34:39;;;;;;;11.93;2.27;;;10.20;99.90;;;;;;5047405;28;20222;-81
2022/10/03 01:37:12;;;;;;;14.37;2.47;;;10.20;99.90;;;;;;5046557;28;20944;-81
2022/10/03 01:39:45;;;;;;;12.00;2.57;;;10.20;99.90;;;;;;5048268;28;20318;-81
2022/10/03 01:42:19;;;;;;;11.63;2.50;;;10.20;99.90;;;;;;5037750;28;20223;-80
2022/10/03 01:45:02;;;;;;;12.30;2.80;;;10.20;99.90;;;;;;5046330;28;20330;-80
2022/10/03 01:47:36;;;;;;;10.73;2.87;;;10.20;99.90;;;;;;5063893;28;20258;-82
2022/10/03 01:50:14;;;;;;;14.30;2.60;;;10.20;99.90;;;;;;5045559;28;20231;-82
2022/10/03 01:52:48;;;;;;;16.13;3.00;;;10.20;99.90;;;;;;5046766;28;20337;-82
2022/10/03 01:55:23;;;;;;;9.97;2.60;;;10.10;99.90;;;;;;5044891;28;20239;-82
2022/10/03 01:57:59;;;;;;;11.57;2.70;;;10.10;99.90;;;;;;5048081;28;20369;-80
2022/10/03 02:00:34;;;;;;;11.07;2.30;;;10.10;99.90;;;;;;5049917;28;20240;-81
2022/10/03 02:03:09;;;;;;;14.50;2.77;;;10.00;99.90;;;;;;5050508;28;20239;-80
2022/10/03 02:05:46;;;;;;;12.93;2.80;;;9.90;99.90;;;;;;5049235;28;20597;-80
2022/10/03 02:08:27;;;;;;;17.40;2.53;;;9.90;99.90;;;;;;5046502;28;20234;-81
2022/10/03 02:11:00;;;;;;;14.97;2.33;;;9.80;99.90;;;;;;5046567;28;20236;-81
2022/10/03 02:13:38;;;;;;;17.17;3.60;;;9.80;99.90;;;;;;5037591;28;20718;-81
2022/10/03 02:16:10;;;;;;;14.27;2.33;;;9.70;99.90;;;;;;5029402;28;20337;-81
2022/10/03 02:18:44;;;;;;;20.07;3.00;;;9.70;99.90;;;;;;5028311;28;20230;-81
2022/10/03 02:21:17;;;;;;;16.90;2.40;;;9.70;99.90;;;;;;5042947;28;20229;-81
2022/10/03 02:23:45;;;;;;;12.20;2.73;;;9.70;99.90;;;;;;5048685;28;20230;-81
2022/10/03 02:26:50;;;;;;;11.67;2.40;;;9.70;99.90;;;;;;5028809;28;20238;-81
2022/10/03 02:29:49;;;;;;;13.13;2.60;;;9.70;99.90;;;;;;5041631;28;20245;-82
2022/10/03 02:32:46;;;;;;;13.43;2.30;;;9.60;99.90;;;;;;5021382;28;20598;-80
2022/10/03 02:35:28;;;;;;;13.57;2.03;;;9.60;99.90;;;;;;5041626;28;20252;-81
2022/10/03 02:38:09;;;;;;;9.30;2.23;;;9.60;99.90;;;;;;5048125;28;20245;-81
2022/10/03 02:41:06;;;;;;;10.40;2.30;;;9.60;99.90;;;;;;5051361;28;20237;-80
2022/10/03 02:44:01;;;;;;;11.03;2.43;;;9.50;99.90;;;;;;5048470;28;20343;-80
2022/10/03 02:47:13;;;;;;;9.10;1.97;;;9.50;99.90;;;;;;5033699;28;20239;-79
2022/10/03 02:50:18;;;;;;;14.57;2.10;;;9.40;99.90;;;;;;5033682;28;20228;-80
2022/10/03 02:53:21;;;;;;;12.70;2.07;;;9.30;99.90;;;;;;5033666;28;20661;-80
2022/10/03 02:56:36;;;;;;;12.83;2.40;;;9.30;99.90;;;;;;5033677;28;20337;-80
2022/10/03 02:59:53;;;;;;;10.50;2.57;;;9.30;99.90;;;;;;5050876;28;20227;-81
2022/10/03 03:02:47;;;;;;;17.70;3.37;;;9.20;99.90;;;;;;5042588;28;20238;-81
2022/10/03 03:05:27;;;;;;;15.90;2.33;;;9.20;99.90;;;;;;5051763;28;20717;-81
2022/10/03 03:08:27;;;;;;;14.20;2.67;;;9.10;99.90;;;;;;5067039;28;20240;-81
2022/10/03 03:11:09;;;;;;;10.90;2.10;;;9.10;99.90;;;;;;5042913;28;20228;-80
2022/10/03 03:14:09;;;;;;;15.37;2.60;;;9.10;99.90;;;;;;5048817;28;20226;-79
2022/10/03 03:16:56;;;;;;;10.90;2.27;;;9.00;99.90;;;;;;5041510;28;20240;-80
2022/10/03 03:19:52;;;;;;;21.63;3.00;;;9.00;99.90;;;;;;5030040;28;20283;-79
2022/10/03 03:22:33;;;;;;;11.67;2.07;;;8.90;99.90;;;;;;5033200;28;20475;-80
2022/10/03 03:25:30;;;;;;;9.93;1.77;;;8.90;99.90;;;;;;5032787;28;20218;-80
2022/10/03 03:28:11;;;;;;;13.43;2.20;;;8.90;99.90;;;;;;5030316;28;20234;-80
2022/10/03 03:30:47;;;;;;;17.07;2.83;;;8.80;99.90;;;;;;5030992;28;20242;-81
2022/10/03 03:33:25;;;;;;;14.63;2.40;;;8.90;99.90;;;;;;5028938;28;20283;-81
2022/10/03 03:36:01;;;;;;;14.60;2.63;;;8.80;99.90;;;;;;5037340;28;20225;-81
2022/10/03 03:38:34;;;;;;;11.37;1.90;;;8.80;99.90;;;;;;5050367;28;20877;-81
2022/10/03 03:41:25;;;;;;;11.90;2.70;;;8.80;99.90;;;;;;5049770;28;20711;-82
2022/10/03 03:44:34;;;;;;;12.33;2.10;;;8.70;99.90;;;;;;5047630;28;20287;-82
2022/10/03 03:47:18;;;;;;;12.73;2.37;;;8.70;99.90;;;;;;5005442;28;20310;-81
2022/10/03 03:50:09;;;;;;;18.07;3.00;;;8.70;99.90;;;;;;5049301;28;20227;-82
2022/10/03 03:52:51;;;;;;;7.93;1.90;;;8.70;99.90;;;;;;5048495;28;20230;-81
2022/10/03 03:55:55;;;;;;;11.70;2.70;;;8.60;99.90;;;;;;5049318;28;20285;-82
2022/10/03 03:58:32;;;;;;;16.07;2.57;;;8.60;99.90;;;;;;5048835;28;20731;-80
2022/10/03 04:01:38;;;;;;;12.23;2.53;;;8.60;99.90;;;;;;5047509;28;20326;-81
2022/10/03 04:04:22;;;;;;;15.83;2.77;;;8.60;99.90;;;;;;4986981;28;20306;-81
2022/10/03 04:06:59;;;;;;;7.50;2.10;;;8.60;99.90;;;;;;5047927;28;20229;-81
2022/10/03 04:09:53;;;;;;;10.90;2.57;;;8.50;99.90;;;;;;5051442;28;20305;-81
2022/10/03 04:12:35;;;;;;;9.63;2.40;;;8.50;99.90;;;;;;5039450;28;20300;-81
2022/10/03 04:15:25;;;;;;;15.23;2.80;;;8.50;99.90;;;;;;5030253;28;20288;-81
2022/10/03 04:21:09;;;;;;;7.80;2.27;;;8.50;99.90;;;;;;5041060;28;20757;-81
2022/10/03 04:23:57;;;;;;;9.13;2.10;;;8.50;99.90;;;;;;5061305;28;20229;-81
2022/10/03 04:26:41;;;;;;;14.17;2.57;;;8.40;99.90;;;;;;5048655;28;20226;-82
2022/10/03 04:29:46;;;;;;;11.27;2.13;;;8.40;99.90;;;;;;5049403;28;20303;-81
2022/10/03 04:32:40;;;;;;;12.03;2.37;;;8.40;99.90;;;;;;5036994;28;20248;-83
2022/10/03 04:35:24;;;;;;;16.13;2.63;;;8.40;99.90;;;;;;5040526;28;20232;-85
2022/10/03 04:38:04;;;;;;;8.70;2.43;;;8.40;99.90;;;;;;5051034;28;20305;-86
2022/10/03 04:40:43;;;;;;;12.13;2.27;;;8.30;99.90;;;;;;5042003;28;20277;-86
2022/10/03 04:43:15;;;;;;;10.47;2.13;;;8.30;99.90;;;;;;5034759;28;20236;-85
2022/10/03 04:46:00;;;;;;;14.20;3.10;;;8.30;99.90;;;;;;5041815;28;20740;-85
2022/10/03 04:48:37;;;;;;;11.30;2.40;;;8.30;99.90;;;;;;5059126;28;20217;-85
2022/10/03 04:51:17;;;;;;;15.13;2.50;;;8.30;99.90;;;;;;5040182;28;20232;-87
2022/10/03 04:53:53;;;;;;;15.13;2.23;;;8.30;99.90;;;;;;5042085;28;20252;-85
2022/10/03 04:56:34;;;;;;;15.87;2.97;;;8.30;99.90;;;;;;5043010;28;20230;-85
2022/10/03 04:59:09;;;;;;;9.97;2.37;;;8.20;99.90;;;;;;5044329;28;20398;-87
2022/10/03 05:01:47;;;;;;;19.13;2.53;;;8.20;99.90;;;;;;5049249;28;20232;-85
2022/10/03 05:04:25;;;;;;;17.03;3.00;;;8.20;99.90;;;;;;5050503;28;20313;-85
2022/10/03 05:06:59;;;;;;;14.13;2.53;;;8.20;99.90;;;;;;5058040;28;20222;-88
2022/10/03 05:09:37;;;;;;;14.20;2.53;;;8.20;99.90;;;;;;5041472;28;20687;-88
2022/10/03 05:12:13;;;;;;;13.23;2.23;;;8.20;99.90;;;;;;5044688;28;20233;-89
2022/10/03 05:14:54;;;;;;;14.83;2.80;;;8.20;99.90;;;;;;5039089;28;20252;-90
2022/10/03 05:17:28;;;;;;;11.00;2.20;;;8.20;99.90;;;;;;5037128;28;20228;-90
2022/10/03 05:20:22;;;;;;;16.47;2.87;;;8.20;99.90;;;;;;5054639;28;20230;-88
2022/10/03 05:22:56;;;;;;;12.37;2.90;;;8.20;99.90;;;;;;5057438;28;20287;-89
2022/10/03 05:25:36;;;;;;;14.63;2.57;;;8.10;99.90;;;;;;5043543;28;20227;-89
2022/10/03 05:28:14;;;;;;;18.00;2.63;;;8.10;99.90;;;;;;5042731;28;20913;-88
2022/10/03 05:30:48;;;;;;;12.17;2.40;;;8.10;99.90;;;;;;5056684;28;20294;-89
2022/10/03 05:33:25;;;;;;;15.63;3.33;;;8.10;99.90;;;;;;5037142;28;20227;-89
2022/10/03 05:36:08;;;;;;;14.73;2.33;;;8.10;99.90;;;;;;5052467;28;20333;-89
2022/10/03 05:39:31;;;;;;;17.20;3.23;;;8.10;99.90;;;;;;5040249;28;20230;-88
2022/10/03 05:42:14;;;;;;;18.80;3.30;;;8.20;99.90;;;;;;5041573;28;20312;-88
2022/10/03 05:44:45;;;;;;;12.33;3.17;;;8.20;99.90;;;;;;5052721;28;20222;-88
2022/10/03 05:50:47;;;;;;;17.37;2.90;;;8.10;99.90;;;;;;5056392;28;20234;-89
2022/10/03 05:53:49;;;;;;;12.73;2.63;;;8.20;99.90;;;;;;5039269;28;20234;-89
2022/10/03 05:56:31;;;;;;;14.23;2.80;;;8.20;99.90;;;;;;5039478;28;20938;-83
2022/10/03 05:59:29;;;;;;;17.20;3.17;;;8.20;99.90;;;;;;5053451;28;20236;-86
2022/10/03 06:02:37;;;;;;;19.87;3.17;;;8.30;99.90;;;;;;5069316;23;20232;-81
2022/10/03 06:05:22;;;;;;;14.90;2.83;;;8.30;99.90;;;;;;5044351;28;20266;-81
2022/10/03 06:08:20;;;;;;;16.67;3.23;;;8.30;99.90;;;;;;5038862;28;20221;-81
2022/10/03 06:11:01;;;;;;;20.57;3.17;;;8.30;99.90;;;;;;5042221;28;20237;-82
2022/10/03 06:13:48;;;;;;;17.93;3.03;;;8.40;99.90;;;;;;5040033;28;20912;-81
2022/10/03 06:16:29;;;;;;;18.67;3.00;;;8.50;99.90;;;;;;5056927;28;20230;-80
2022/10/03 06:19:06;;;;;;;14.40;2.87;;;8.60;99.90;;;;;;5055148;28;20388;-82
2022/10/03 06:22:03;;;;;;;16.53;3.37;;;8.70;99.90;;;;;;5023400;28;20585;-81
2022/10/03 06:24:54;;;;;;;18.77;3.07;;;8.80;99.90;;;;;;5019185;28;20228;-82
2022/10/03 06:27:50;;;;;;;20.57;2.97;;;9.00;99.90;;;;;;5021290;28;20234;-82
2022/10/03 06:30:22;;;;;;;13.97;2.93;;;9.10;99.90;;;;;;5010546;28;20897;-80
2022/10/03 06:33:25;;;;;;;17.97;3.53;;;9.20;99.90;;;;;;5039210;28;20225;-82
2022/10/03 06:36:18;;;;;;;23.13;3.87;;;9.30;99.90;;;;;;5028263;28;21800;-83
2022/10/03 06:39:29;;;;;;;30.30;3.80;;;9.40;99.90;;;;;;5044215;28;20223;-83
2022/10/03 06:42:24;;;;;;;16.73;3.83;;;9.50;99.90;;;;;;5019541;28;20332;-83
2022/10/03 06:45:26;;;;;;;20.40;3.70;;;9.70;99.90;;;;;;5017565;28;20308;-82
2022/10/03 06:48:29;;;;;;;18.13;3.67;;;9.80;99.90;;;;;;5018665;28;20295;-81
2022/10/03 06:51:15;;;;;;;19.97;4.07;;;9.90;99.90;;;;;;5013856;28;20234;-83
2022/10/03 06:54:05;;;;;;;18.93;3.37;;;10.00;99.90;;;;;;5024528;28;20531;-82
2022/10/03 06:57:07;;;;;;;18.53;2.83;;;10.10;99.90;;;;;;5014539;28;20274;-82
2022/10/03 07:00:14;;;;;;;15.17;2.87;;;10.20;99.90;;;;;;5022860;28;20247;-82
2022/10/03 07:03:15;;;;;;;24.37;3.30;;;10.40;99.90;;;;;;5021625;28;20297;-82
2022/10/03 07:06:10;;;;;;;20.90;3.47;;;10.40;99.90;;;;;;5017974;28;20230;-82
2022/10/03 07:09:14;;;;;;;17.53;3.20;;;10.60;99.90;;;;;;5008289;28;20303;-82
2022/10/03 07:12:19;;;;;;;18.83;3.50;;;10.70;99.90;;;;;;5021306;28;20256;-82
2022/10/03 07:15:21;;;;;;;11.47;2.90;;;10.80;99.90;;;;;;5011842;28;20224;-82
2022/10/03 07:18:00;;;;;;;13.57;2.93;;;11.00;99.90;;;;;;5009828;28;20392;-82
2022/10/03 07:20:53;;;;;;;15.97;3.10;;;11.10;99.90;;;;;;5029831;28;20696;-82
2022/10/03 07:23:41;;;;;;;12.67;3.40;;;11.20;99.90;;;;;;5016229;28;20231;-82
2022/10/03 07:26:48;;;;;;;16.70;2.63;;;11.30;99.90;;;;;;5019940;28;20230;-82
2022/10/03 07:29:23;;;;;;;11.73;2.37;;;11.40;99.90;;;;;;4999351;28;20631;-82
2022/10/03 07:32:06;;;;;;;11.00;2.60;;;11.40;99.90;;;;;;5009435;28;20283;-82
2022/10/03 07:35:14;;;;;;;11.97;2.90;;;11.50;99.90;;;;;;5022524;28;20225;-82
2022/10/03 07:41:15;;;;;;;13.77;2.23;;;11.60;99.90;;;;;;5010879;28;20241;-82
2022/10/03 07:44:14;;;;;;;11.00;2.60;;;11.70;99.90;;;;;;5014186;28;20229;-82
2022/10/03 07:47:13;;;;;;;12.97;3.13;;;11.70;99.90;;;;;;5006068;28;20221;-82
2022/10/03 07:50:01;;;;;;;10.73;2.47;;;11.80;99.90;;;;;;5023728;28;20225;-82
2022/10/03 07:52:57;;;;;;;11.47;3.00;;;11.80;99.90;;;;;;5023633;28;20229;-82
2022/10/03 07:55:53;;;;;;;13.87;2.37;;;11.80;99.90;;;;;;5015591;28;20230;-81
2022/10/03 07:58:55;;;;;;;12.70;2.73;;;11.90;99.90;;;;;;5033586;28;20226;-82
2022/10/03 08:01:55;;;;;;;13.47;2.80;;;11.90;99.90;;;;;;5031457;28;20232;-82
2022/10/03 08:04:56;;;;;;;10.70;2.90;;;11.90;99.90;;;;;;5008130;28;20341;-82
2022/10/03 08:07:51;;;;;;;12.10;3.00;;;12.00;99.90;;;;;;5010213;28;20227;-83
2022/10/03 08:10:48;;;;;;;8.60;2.93;;;12.10;99.90;;;;;;5018737;28;20699;-82
2022/10/03 08:13:31;;;;;;;8.27;2.03;;;12.10;99.90;;;;;;5013890;28;20242;-82
2022/10/03 08:16:14;;;;;;;10.80;3.00;;;12.20;99.90;;;;;;5020676;28;20226;-84
2022/10/03 08:19:11;;;;;;;8.07;2.13;;;12.30;99.90;;;;;;5037256;28;20316;-84
2022/10/03 08:21:52;;;;;;;10.13;2.10;;;12.40;99.90;;;;;;5033693;28;20225;-84
2022/10/03 08:24:50;;;;;;;10.47;2.27;;;12.50;99.90;;;;;;5035012;28;20324;-84
2022/10/03 08:27:35;;;;;;;9.07;2.43;;;12.70;99.90;;;;;;5011687;28;20313;-85
2022/10/03 08:30:21;;;;;;;9.53;2.47;;;13.00;99.90;;;;;;5018076;28;20258;-84
2022/10/03 08:33:25;;;;;;;10.63;2.20;;;13.30;99.90;;;;;;5020939;28;20429;-85
2022/10/03 08:36:21;;;;;;;13.47;2.70;;;13.60;99.90;;;;;;4970999;28;20234;-84
2022/10/03 08:39:10;;;;;;;9.80;2.80;;;14.10;99.90;;;;;;5023539;28;20239;-85
2022/10/03 08:42:21;;;;;;;7.93;2.30;;;14.60;99.90;;;;;;5014997;28;20254;-85
2022/10/03 08:45:07;;;;;;;12.73;2.43;;;15.30;99.90;;;;;;5017449;28;20767;-84
2022/10/03 08:48:12;;;;;;;10.47;2.40;;;15.80;99.90;;;;;;5020958;28;20219;-87
2022/10/03 08:50:56;;;;;;;7.77;2.20;;;16.30;99.90;;;;;;5017432;28;20231;-85
2022/10/03 08:53:50;;;;;;;12.10;2.17;;;16.70;99.90;;;;;;5013818;28;20219;-85
2022/10/03 08:56:22;;;;;;;11.87;2.63;;;17.00;99.90;;;;;;5021920;28;20395;-85
2022/10/03 08:59:22;;;;;;;9.37;2.07;;;17.20;99.90;;;;;;5040499;28;20274;-85
2022/10/03 09:02:25;;;;;;;8.43;2.23;;;17.30;99.90;;;;;;5017454;28;20350;-86
2022/10/03 09:05:21;;;;;;;8.50;2.07;;;17.30;99.90;;;;;;4986842;28;20238;-86
2022/10/03 09:08:41;;;;;;;6.97;2.57;;;17.20;99.90;;;;;;5017027;28;20226;-85
2022/10/03 09:12:02;;;;;;;8.67;2.20;;;17.20;99.90;;;;;;5017485;28;21072;-85
2022/10/03 09:14:55;;;;;;;10.77;2.20;;;17.10;99.90;;;;;;5016109;28;20236;-85
2022/10/03 09:17:55;;;;;;;11.10;2.37;;;17.20;99.90;;;;;;5013744;28;20316;-85
2022/10/03 09:20:55;;;;;;;8.60;2.57;;;17.20;99.90;;;;;;5016529;28;20223;-86
2022/10/03 09:23:45;;;;;;;10.20;2.47;;;17.10;99.90;;;;;;5018018;28;20310;-86
2022/10/03 09:26:54;;;;;;;12.90;2.40;;;17.00;99.90;;;;;;5018440;28;20609;-86
2022/10/03 09:29:47;;;;;;;11.93;2.17;;;16.90;99.90;;;;;;5023980;28;20237;-86
2022/10/03 09:32:48;;;;;;;7.83;2.07;;;16.80;99.90;;;;;;5028067;28;20254;-86
2022/10/03 09:35:46;;;;;;;12.73;2.70;;;16.60;99.90;;;;;;5016080;28;20217;-85
2022/10/03 09:38:49;;;;;;;8.77;2.00;;;16.40;99.90;;;;;;5016848;28;20227;-86
2022/10/03 09:41:45;;;;;;;9.37;2.20;;;16.30;99.90;;;;;;5013396;28;20237;-86
2022/10/03 09:44:59;;;;;;;10.33;3.73;;;16.20;99.90;;;;;;5013667;28;20241;-86
2022/10/03 09:48:00;;;;;;;13.17;3.13;;;16.10;99.90;;;;;;5034635;28;20220;-86
2022/10/03 09:51:03;;;;;;;7.60;2.03;;;16.10;99.90;;;;;;5021164;28;20247;-86
2022/10/03 09:54:03;;;;;;;8.70;2.40;;;16.20;99.90;;;;;;5022613;28;20224;-86
2022/10/03 09:56:53;;;;;;;9.97;2.40;;;16.40;99.90;;;;;;5019281;28;20218;-86
2022/10/03 09:59:43;;;;;;;7.97;2.07;;;16.50;99.90;;;;;;5020369;28;20317;-86
2022/10/03 10:02:39;;;;;;;8.73;2.47;;;16.70;99.90;;;;;;5037580;28;20292;-85
2022/10/03 10:05:46;;;;;;;10.27;2.53;;;16.70;99.90;;;;;;5025784;28;20369;-86
2022/10/03 10:08:52;;;;;;;10.27;2.07;;;16.80;99.90;;;;;;5025322;28;20313;-86
2022/10/03 10:11:36;;;;;;;10.43;2.30;;;17.10;99.90;;;;;;5003151;28;20225;-85
2022/10/03 10:14:33;;;;;;;9.97;2.13;;;17.40;99.90;;;;;;5013394;28;20658;-84
2022/10/03 10:17:27;;;;;;;8.80;2.00;;;17.80;99.90;;;;;;5040149;28;20226;-84
2022/10/03 10:20:15;;;;;;;7.73;2.40;;;18.10;99.90;;;;;;5024273;28;20746;-84
2022/10/03 10:23:09;;;;;;;8.00;2.00;;;18.40;99.90;;;;;;5015172;28;20227;-84
2022/10/03 10:26:23;;;;;;;10.83;2.13;;;18.60;99.90;;;;;;5017780;28;20240;-83
2022/10/03 10:29:18;;;;;;;7.93;2.20;;;19.00;99.90;;;;;;4969477;28;20289;-83
2022/10/03 10:32:24;;;;;;;6.33;1.77;;;19.30;99.90;;;;;;5030166;28;20231;-83
2022/10/03 10:35:41;;;;;;;6.73;1.87;;;19.60;99.90;;;;;;5025711;28;20232;-82
2022/10/03 10:38:43;;;;;;;9.97;2.53;;;19.60;99.90;;;;;;5028061;28;20248;-82
2022/10/03 10:41:37;;;;;;;7.83;2.27;;;19.50;99.90;;;;;;5030596;28;20238;-83
2022/10/03 10:44:43;;;;;;;6.43;1.97;;;19.30;99.90;;;;;;5025407;28;20228;-82
2022/10/03 10:47:13;;;;;;;7.33;2.00;;;18.90;99.90;;;;;;5025063;28;20688;-83
2022/10/03 10:50:22;;;;;;;8.50;2.13;;;18.50;99.90;;;;;;5019974;28;20228;-83
2022/10/03 10:53:31;;;;;;;6.20;1.80;;;18.00;99.90;;;;;;5043094;28;20710;-83
2022/10/03 10:56:38;;;;;;;7.47;1.90;;;17.60;99.90;;;;;;5047689;28;20228;-83
2022/10/03 10:59:38;;;;;;;5.97;1.80;;;17.50;99.90;;;;;;5026849;28;20221;-83
2022/10/03 11:02:45;;;;;;;5.93;1.50;;;17.60;99.90;;;;;;5024198;28;20258;-83
2022/10/03 11:05:41;;;;;;;8.47;2.20;;;17.70;99.90;;;;;;5042850;28;20445;-83
2022/10/03 11:08:38;;;;;;;7.53;1.83;;;17.80;99.90;;;;;;5035235;28;20800;-83
2022/10/03 11:11:40;;;;;;;7.00;1.70;;;17.80;99.90;;;;;;5040317;28;20237;-84
2022/10/03 11:14:39;;;;;;;6.67;1.80;;;17.60;99.90;;;;;;5024507;28;20233;-83
2022/10/03 11:17:47;;;;;;;9.53;1.73;;;17.40;99.90;;;;;;5017473;28;20566;-83
2022/10/03 11:20:48;;;;;;;6.27;2.10;;;17.20;99.90;;;;;;5025839;28;20226;-86
2022/10/03 11:23:56;;;;;;;6.27;1.70;;;16.90;99.90;;;;;;5023409;28;20227;-85
2022/10/03 11:26:53;;;;;;;5.07;1.30;;;16.70;99.90;;;;;;5049533;28;20236;-84
2022/10/03 11:30:05;;;;;;;8.70;1.80;;;16.60;99.90;;;;;;5026505;28;20675;-85
2022/10/03 11:33:15;;;;;;;8.47;3.97;;;16.60;99.90;;;;;;5017333;28;20606;-85
2022/10/03 11:36:12;;;;;;;5.27;1.80;;;16.70;99.90;;;;;;5028769;28;20269;-84
2022/10/03 11:38:47;;;;;;;10.33;2.10;;;16.70;99.90;;;;;;5043648;28;20232;-84
2022/10/03 11:41:28;;;;;;;5.80;1.50;;;16.80;99.90;;;;;;5035069;28;20321;-84
2022/10/03 11:44:08;;;;;;;6.50;1.70;;;16.80;99.90;;;;;;5041530;28;20240;-85
2022/10/03 11:46:54;;;;;;;7.13;1.83;;;16.80;99.90;;;;;;5019426;28;20273;-85
2022/10/03 11:49:46;;;;;;;4.57;1.20;;;16.80;99.90;;;;;;5037913;28;20240;-84
2022/10/03 11:52:27;;;;;;;5.70;1.60;;;16.80;99.90;;;;;;5016951;28;20230;-85
2022/10/03 11:55:04;;;;;;;5.27;1.40;;;16.80;99.90;;;;;;5032597;28;20253;-84
2022/10/03 11:57:35;;;;;;;5.03;1.40;;;16.90;99.90;;;;;;5023922;28;20318;-85
2022/10/03 12:00:05;;;;;;;5.60;1.67;;;17.10;99.90;;;;;;5015187;28;20219;-85
2022/10/03 12:02:54;;;;;;;5.40;1.50;;;17.30;99.90;;;;;;5021751;28;20230;-85
2022/10/03 12:05:35;;;;;;;8.73;1.70;;;17.50;99.90;;;;;;5022057;28;20779;-86
2022/10/03 12:11:10;;;;;;;4.40;1.57;;;17.70;99.90;;;;;;5037945;28;20227;-89
2022/10/03 12:13:47;;;;;;;4.93;1.40;;;17.70;99.90;;;;;;5033010;28;20284;-85
2022/10/03 12:16:26;;;;;;;9.53;2.13;;;17.50;99.90;;;;;;5041667;28;20231;-84
2022/10/03 12:19:05;;;;;;;4.70;1.73;;;17.40;99.90;;;;;;5020538;28;20231;-84
2022/10/03 12:21:45;;;;;;;6.67;2.13;;;17.20;99.90;;;;;;5019573;28;20230;-84
2022/10/03 12:24:25;;;;;;;9.67;3.50;;;17.10;99.90;;;;;;5015528;28;20235;-84
2022/10/03 12:26:58;;;;;;;6.07;1.60;;;16.90;99.90;;;;;;5017357;28;20230;-85
2022/10/03 12:29:31;;;;;;;6.67;1.60;;;16.90;99.90;;;;;;5019700;28;20236;-84
2022/10/03 12:32:13;;;;;;;6.90;1.80;;;16.80;99.90;;;;;;5035459;28;20245;-84
2022/10/03 12:34:43;;;;;;;9.03;1.73;;;16.80;99.90;;;;;;5017316;28;20333;-84
2022/10/03 12:37:59;;;;;;;7.10;1.70;;;16.70;99.90;;;;;;5047834;28;20259;-84
2022/10/03 12:40:31;;;;;;;9.87;2.17;;;16.70;99.90;;;;;;4948534;28;20234;-84
2022/10/03 12:43:23;;;;;;;6.73;1.67;;;16.60;99.90;;;;;;5028805;28;20252;-85
2022/10/03 12:45:57;;;;;;;10.03;2.13;;;16.60;99.90;;;;;;5021819;28;20338;-83
2022/10/03 12:48:47;;;;;;;9.63;2.03;;;16.50;99.90;;;;;;5039886;28;20227;-86
2022/10/03 12:51:38;;;;;;;7.63;1.70;;;16.40;99.90;;;;;;5023578;28;20264;-85
2022/10/03 12:54:22;;;;;;;9.30;1.63;;;16.40;99.90;;;;;;5040219;28;20309;-85
2022/10/03 12:57:02;;;;;;;9.63;3.97;;;16.40;99.90;;;;;;5019334;28;20838;-82
2022/10/03 12:59:37;;;;;;;9.03;3.57;;;16.40;99.90;;;;;;5014607;28;20221;-86
2022/10/03 13:02:29;;;;;;;6.00;1.90;;;16.40;99.90;;;;;;5024197;28;20229;-84
2022/10/03 13:05:28;;;;;;;7.73;1.87;;;16.50;99.90;;;;;;5041695;28;20267;-84
2022/10/03 13:08:01;;;;;;;5.93;2.13;;;16.60;99.90;;;;;;5019573;28;20303;-84
2022/10/03 13:10:40;;;;;;;21.37;9.93;;;16.70;99.90;;;;;;5026608;28;20246;-85
2022/10/03 13:13:27;;;;;;;9.80;2.63;;;16.70;99.90;;;;;;5021731;28;20232;-84
2022/10/03 13:16:13;;;;;;;8.00;2.10;;;16.70;99.90;;;;;;5023213;28;20286;-85
2022/10/03 13:18:47;;;;;;;7.27;2.10;;;16.70;99.90;;;;;;5023983;28;20254;-84
2022/10/03 13:21:19;;;;;;;8.67;2.40;;;16.70;99.90;;;;;;5021671;28;20241;-85
2022/10/03 13:23:52;;;;;;;11.73;2.67;;;16.70;99.90;;;;;;5016460;28;20710;-85
2022/10/03 13:26:26;;;;;;;5.67;1.70;;;16.60;99.90;;;;;;5019769;28;20230;-85
2022/10/03 13:29:18;;;;;;;12.80;2.17;;;16.60;99.90;;;;;;5015479;28;20293;-85
2022/10/03 13:32:01;;;;;;;5.03;1.67;;;16.40;99.90;;;;;;5038627;28;20252;-84
2022/10/03 13:34:33;;;;;;;6.70;2.03;;;16.30;99.90;;;;;;5053541;28;20232;-83
2022/10/03 13:37:08;;;;;;;9.17;2.03;;;16.20;99.90;;;;;;5033392;28;20232;-84
2022/10/03 13:39:46;;;;;;;8.73;2.00;;;16.20;99.90;;;;;;5014664;28;20257;-84
2022/10/03 13:42:19;;;;;;;8.77;2.03;;;16.10;99.90;;;;;;5022686;28;20229;-85
2022/10/03 13:44:53;;;;;;;5.97;1.80;;;16.10;99.90;;;;;;5024099;28;20224;-84
2022/10/03 13:47:35;;;;;;;8.70;2.93;;;16.10;99.90;;;;;;5022518;28;20225;-84
2022/10/03 13:50:08;;;;;;;33.20;18.77;;;16.10;99.90;;;;;;5024296;28;20580;-84
2022/10/03 13:52:39;;;;;;;10.40;2.77;;;16.10;99.90;;;;;;5017898;28;20282;-85
2022/10/03 13:55:25;;;;;;;9.77;3.63;;;16.10;99.90;;;;;;5023576;28;20230;-85
2022/10/03 13:58:07;;;;;;;10.03;2.20;;;16.10;99.90;;;;;;5020742;28;20325;-84
2022/10/03 14:00:45;;;;;;;9.70;2.37;;;16.10;99.90;;;;;;5018568;28;20316;-84
2022/10/03 14:03:25;;;;;;;9.90;2.17;;;16.20;99.90;;;;;;5021206;28;20220;-85
2022/10/03 14:06:12;;;;;;;7.30;2.77;;;16.20;99.90;;;;;;5022221;28;20247;-84
2022/10/03 14:09:09;;;;;;;5.50;1.67;;;16.30;99.90;;;;;;5021448;28;20378;-84
2022/10/03 14:11:43;;;;;;;8.60;2.10;;;16.30;99.90;;;;;;5053253;28;20585;-85
2022/10/03 14:14:39;;;;;;;9.53;2.27;;;16.40;99.90;;;;;;5017643;28;20312;-84
2022/10/03 14:17:12;;;;;;;5.00;1.50;;;16.40;99.90;;;;;;5031499;28;20721;-84
2022/10/03 14:19:51;;;;;;;7.90;1.73;;;16.50;99.90;;;;;;5053532;28;20225;-84
2022/10/03 14:22:28;;;;;;;6.40;2.03;;;16.40;99.90;;;;;;5037114;28;20229;-85
2022/10/03 14:25:07;;;;;;;8.20;2.10;;;16.40;99.90;;;;;;5018840;28;20248;-84
2022/10/03 14:27:47;;;;;;;6.27;1.80;;;16.40;99.90;;;;;;5022301;28;20229;-84
2022/10/03 14:30:18;;;;;;;8.00;1.63;;;16.30;99.90;;;;;;5016723;28;20422;-85
2022/10/03 14:33:05;;;;;;;6.47;1.73;;;16.30;99.90;;;;;;5024612;28;20229;-84
2022/10/03 14:35:41;;;;;;;5.67;1.70;;;16.30;99.90;;;;;;5012573;28;20756;-84
2022/10/03 14:41:19;;;;;;;10.07;2.57;;;16.20;99.90;;;;;;5036965;28;20216;-84
2022/10/03 14:43:50;;;;;;;7.60;2.67;;;16.20;99.90;;;;;;5023585;28;20225;-84
2022/10/03 14:46:21;;;;;;;22.17;8.77;;;16.10;99.90;;;;;;5052677;28;20315;-84
2022/10/03 14:48:51;;;;;;;27.03;14.00;;;16.10;99.90;;;;;;5045192;28;20221;-84
2022/10/03 14:51:23;;;;;;;8.67;2.77;;;16.00;99.90;;;;;;5044408;28;20250;-84